Time;durP1;ratioP1;P1;durP2;ratioP2;P2;SDS_P1;SDS_P2;PMS_P1;PMS_P2;Temp;Humidity;BMP_temperature;BMP_pressure;BME280_temperature;BME280_humidity;BME280_pressure;Samples;Min_cycle;Max_cycle;Signal;HPM_P1;HPM_P2
2022/10/29 00:01:05;;;;;;;32.10;8.63;;;;;;;16.65;99.56;101713.91;6108283;23;20017;-73
2022/10/29 00:03:31;;;;;;;44.53;9.73;;;;;;;16.76;99.19;101711.69;6107859;23;20005;-73
2022/10/29 00:06:02;;;;;;;27.73;7.47;;;;;;;16.74;99.31;101718.34;6107714;23;20006;-73
2022/10/29 00:08:29;;;;;;;41.40;10.13;;;;;;;16.87;98.89;101713.16;6107690;23;20447;-73
2022/10/29 00:10:55;;;;;;;32.25;8.68;;;;;;;16.80;99.07;101723.09;6109284;23;20349;-73
2022/10/29 00:13:21;;;;;;;36.50;9.27;;;;;;;16.77;99.39;101723.47;6109262;23;20002;-73
2022/10/29 00:15:46;;;;;;;36.13;9.13;;;;;;;16.79;99.25;101732.34;6110064;23;20033;-73
2022/10/29 00:18:12;;;;;;;39.88;9.77;;;;;;;16.71;99.88;101735.13;6109180;23;20080;-73
2022/10/29 00:20:37;;;;;;;40.47;11.48;;;;;;;16.80;99.47;101728.56;6135417;23;20005;-73
2022/10/29 00:23:02;;;;;;;35.72;8.88;;;;;;;16.76;99.68;101721.78;6108936;23;20029;-72
2022/10/29 00:25:28;;;;;;;39.10;9.23;;;;;;;16.74;99.29;101723.81;6135432;23;20094;-73
2022/10/29 00:27:55;;;;;;;28.58;9.18;;;;;;;16.58;99.96;101729.34;6109516;23;20013;-73
2022/10/29 00:30:20;;;;;;;43.50;8.63;;;;;;;16.46;100.00;101737.06;6135656;23;20006;-72
2022/10/29 00:32:45;;;;;;;30.13;8.30;;;;;;;16.50;100.00;101750.22;6136023;23;20032;-73
2022/10/29 00:35:10;;;;;;;34.40;8.85;;;;;;;16.42;100.00;101741.16;6135066;23;20013;-72
2022/10/29 00:37:36;;;;;;;47.85;9.82;;;;;;;16.25;100.00;101754.03;6109157;23;20006;-72
2022/10/29 00:40:02;;;;;;;38.72;8.70;;;;;;;16.20;100.00;101753.69;6109506;23;20005;-72
2022/10/29 00:42:27;;;;;;;39.75;8.23;;;;;;;16.29;100.00;101752.63;6109385;23;20005;-73
2022/10/29 00:44:53;;;;;;;40.08;9.52;;;;;;;16.24;100.00;101755.06;6135267;23;20429;-72
2022/10/29 00:47:24;;;;;;;43.28;9.95;;;;;;;16.35;100.00;101745.63;6134688;23;20029;-72
2022/10/29 00:49:55;;;;;;;47.95;9.77;;;;;;;16.17;100.00;101743.97;6135203;23;20036;-72
2022/10/29 00:52:24;;;;;;;41.53;9.73;;;;;;;16.09;100.00;101757.63;6109213;23;20002;-73
2022/10/29 00:54:51;;;;;;;46.10;9.10;;;;;;;16.11;100.00;101760.22;6109298;23;20030;-72
2022/10/29 00:57:25;;;;;;;50.90;10.70;;;;;;;16.15;100.00;101761.56;6109122;23;20006;-73
2022/10/29 00:59:51;;;;;;;39.95;9.20;;;;;;;16.01;100.00;101755.75;6109744;23;20425;-73
2022/10/29 01:02:17;;;;;;;40.38;10.15;;;;;;;16.16;100.00;101763.25;6135188;23;20072;-73
2022/10/29 01:04:43;;;;;;;41.75;9.50;;;;;;;15.98;100.00;101755.28;6108946;23;19994;-72
2022/10/29 01:07:09;;;;;;;34.65;9.32;;;;;;;15.93;100.00;101769.44;6108904;23;20002;-73
2022/10/29 01:09:35;;;;;;;35.75;10.05;;;;;;;15.86;100.00;101773.88;6109232;23;19998;-72
2022/10/29 01:12:20;;;;;;;43.97;10.15;;;;;;;16.05;100.00;101777.28;6109632;23;20002;-72
2022/10/29 01:15:16;;;;;;;46.80;9.90;;;;;;;15.80;100.00;101762.78;6109203;23;20006;-72
2022/10/29 01:18:05;;;;;;;50.92;9.88;;;;;;;15.75;100.00;101768.75;6109186;23;20002;-72
2022/10/29 01:21:07;;;;;;;38.25;10.43;;;;;;;15.74;100.00;101775.25;6109333;23;20009;-72
2022/10/29 01:24:02;;;;;;;42.50;10.52;;;;;;;15.80;100.00;101780.03;6133458;23;20330;-72
2022/10/29 01:26:46;;;;;;;62.72;11.45;;;;;;;15.74;100.00;101769.78;6108796;23;20021;-72
2022/10/29 01:29:45;;;;;;;49.20;11.32;;;;;;;15.60;100.00;101770.41;6134957;23;20044;-73
2022/10/29 01:32:21;;;;;;;39.97;10.02;;;;;;;15.53;100.00;101783.03;6132750;23;20002;-72
2022/10/29 01:34:59;;;;;;;45.38;9.57;;;;;;;15.59;100.00;101787.84;6133527;23;20006;-72
2022/10/29 01:37:33;;;;;;;48.22;10.93;;;;;;;15.42;100.00;101782.31;6108245;23;20352;-72
2022/10/29 01:40:13;;;;;;;45.53;10.52;;;;;;;15.44;100.00;101783.00;6134265;23;20006;-72
2022/10/29 01:42:43;;;;;;;38.85;9.38;;;;;;;15.40;100.00;101789.84;6109118;23;20010;-73
2022/10/29 01:45:20;;;;;;;47.65;9.95;;;;;;;15.38;100.00;101789.13;6134535;23;20009;-73
2022/10/29 01:47:55;;;;;;;35.13;9.18;;;;;;;15.33;100.00;101785.22;6108674;23;20365;-72
2022/10/29 01:50:23;;;;;;;41.22;9.35;;;;;;;15.37;100.00;101778.38;6134643;23;20036;-73
2022/10/29 01:52:50;;;;;;;43.67;9.77;;;;;;;15.32;100.00;101781.66;6109378;23;20037;-72
2022/10/29 01:55:19;;;;;;;48.30;10.13;;;;;;;15.26;100.00;101790.50;6108584;23;20002;-72
2022/10/29 01:57:44;;;;;;;49.30;10.43;;;;;;;15.27;100.00;101792.19;6108300;23;20017;-72
2022/10/29 02:00:19;;;;;;;38.00;9.95;;;;;;;15.28;100.00;101791.16;6134541;23;20010;-73
2022/10/29 02:03:06;;;;;;;60.55;10.82;;;;;;;15.26;100.00;101798.69;6109015;23;20036;-73
2022/10/29 02:05:37;;;;;;;50.40;10.70;;;;;;;15.16;100.00;101797.94;6134871;23;20001;-72
2022/10/29 02:08:05;;;;;;;42.60;9.20;;;;;;;15.08;100.00;101796.06;6113396;23;20368;-74
2022/10/29 02:10:42;;;;;;;43.33;10.73;;;;;;;15.14;100.00;101800.00;6131907;23;20018;-74
2022/10/29 02:13:11;;;;;;;54.42;10.95;;;;;;;15.11;100.00;101792.13;6132028;23;20009;-74
2022/10/29 02:15:51;;;;;;;56.80;11.45;;;;;;;15.20;100.00;101793.88;6132483;23;20057;-74
2022/10/29 02:18:17;;;;;;;46.35;10.07;;;;;;;15.29;100.00;101792.03;6133082;23;20009;-74
2022/10/29 02:20:44;;;;;;;47.95;10.40;;;;;;;15.32;100.00;101803.47;6133142;23;20003;-74
2022/10/29 02:23:09;;;;;;;45.25;9.70;;;;;;;15.41;100.00;101799.72;6133029;23;20052;-74
2022/10/29 02:25:35;;;;;;;41.33;9.65;;;;;;;15.34;100.00;101790.50;6134352;23;20107;-74
2022/10/29 02:28:00;;;;;;;53.25;9.20;;;;;;;15.29;100.00;101787.41;6132240;23;20006;-75
2022/10/29 02:30:26;;;;;;;48.05;11.65;;;;;;;15.26;100.00;101793.22;6132776;23;20464;-74
2022/10/29 02:32:51;;;;;;;54.10;11.02;;;;;;;15.32;100.00;101792.56;6134021;23;20010;-75
2022/10/29 02:35:16;;;;;;;51.70;10.70;;;;;;;15.08;100.00;101790.59;6132277;23;20001;-75
2022/10/29 02:37:42;;;;;;;46.00;11.55;;;;;;;15.02;100.00;101787.69;6132334;23;19998;-75
2022/10/29 02:40:08;;;;;;;48.92;10.90;;;;;;;15.08;100.00;101784.28;6157116;23;20065;-75
2022/10/29 02:42:33;;;;;;;53.97;10.15;;;;;;;15.13;100.00;101787.38;6132408;23;20322;-75
2022/10/29 02:44:59;;;;;;;61.67;10.30;;;;;;;15.13;100.00;101784.66;6157386;23;19998;-75
2022/10/29 02:47:24;;;;;;;49.88;12.55;;;;;;;15.18;100.00;101779.53;6132948;23;20093;-75
2022/10/29 02:49:50;;;;;;;55.13;10.35;;;;;;;15.20;100.00;101777.50;6157187;23;20034;-75
2022/10/29 02:52:15;;;;;;;57.22;12.07;;;;;;;15.04;100.00;101766.53;6134461;23;20080;-75
2022/10/29 02:54:41;;;;;;;51.13;11.68;;;;;;;15.20;100.00;101761.16;6132801;23;20029;-75
2022/10/29 02:57:07;;;;;;;46.92;10.38;;;;;;;15.21;100.00;101768.31;6131543;23;20006;-75
2022/10/29 02:59:32;;;;;;;39.90;11.70;;;;;;;14.92;100.00;101775.00;6133693;23;20048;-75
2022/10/29 03:01:58;;;;;;;59.40;11.48;;;;;;;14.98;100.00;101772.66;6134211;23;20029;-75
2022/10/29 03:04:23;;;;;;;54.10;12.82;;;;;;;15.23;100.00;101763.53;6157229;23;19998;-75
2022/10/29 03:06:49;;;;;;;59.75;12.68;;;;;;;15.19;100.00;101775.78;6132714;23;20211;-75
2022/10/29 03:09:14;;;;;;;61.58;11.30;;;;;;;15.25;100.00;101775.13;6132293;23;20302;-75
2022/10/29 03:11:39;;;;;;;36.90;9.55;;;;;;;15.28;100.00;101785.72;6132052;23;20009;-75
2022/10/29 03:14:05;;;;;;;65.25;12.13;;;;;;;15.45;100.00;101782.00;6132928;23;20009;-75
2022/10/29 03:16:30;;;;;;;49.20;10.40;;;;;;;15.56;100.00;101782.69;6157721;23;20005;-75
2022/10/29 03:18:55;;;;;;;51.80;10.32;;;;;;;15.46;100.00;101783.72;6132668;23;20001;-75
2022/10/29 03:21:21;;;;;;;50.72;10.98;;;;;;;15.61;100.00;101780.31;6133862;23;20038;-76
2022/10/29 03:23:46;;;;;;;46.88;10.57;;;;;;;15.76;100.00;101789.56;6132460;23;20001;-76
2022/10/29 03:26:11;;;;;;;62.85;11.48;;;;;;;15.55;100.00;101783.72;6156264;23;20056;-75
2022/10/29 03:28:37;;;;;;;50.72;10.95;;;;;;;15.62;100.00;101788.34;6131910;23;20156;-75
2022/10/29 03:31:02;;;;;;;60.05;12.32;;;;;;;15.52;100.00;101797.69;6132492;23;20137;-75
2022/10/29 03:33:28;;;;;;;56.92;11.98;;;;;;;15.34;100.00;101790.50;6132551;23;20018;-75
2022/10/29 03:36:04;;;;;;;46.72;13.15;;;;;;;15.35;100.00;101797.66;6132526;23;20014;-75
2022/10/29 03:38:30;;;;;;;46.90;10.95;;;;;;;15.53;100.00;101788.50;6132313;23;20002;-75
2022/10/29 03:40:56;;;;;;;51.78;12.63;;;;;;;15.34;100.00;101782.31;6156985;23;20006;-75
2022/10/29 03:43:21;;;;;;;64.55;11.80;;;;;;;15.63;100.00;101767.38;6132310;23;20028;-75
2022/10/29 03:45:55;;;;;;;60.00;13.68;;;;;;;15.51;100.00;101768.69;6158955;23;20433;-75
2022/10/29 03:48:22;;;;;;;56.53;13.45;;;;;;;15.33;100.00;101782.50;6135738;23;20014;-75
2022/10/29 03:51:01;;;;;;;58.60;13.80;;;;;;;15.37;100.00;101779.25;6135668;23;20004;-75
2022/10/29 03:53:28;;;;;;;56.35;13.30;;;;;;;15.26;100.00;101782.31;6134985;23;20053;-75
2022/10/29 03:55:54;;;;;;;54.83;12.40;;;;;;;15.34;100.00;101785.06;6137726;23;20006;-75
2022/10/29 03:58:21;;;;;;;64.07;14.65;;;;;;;15.51;100.00;101785.06;6137151;23;20009;-75
2022/10/29 04:01:05;;;;;;;61.47;14.18;;;;;;;15.44;100.00;101791.19;6138012;23;20380;-75
2022/10/29 04:03:32;;;;;;;54.83;13.63;;;;;;;15.30;100.00;101780.94;6135629;23;20017;-75
2022/10/29 04:05:59;;;;;;;60.33;14.25;;;;;;;15.19;100.00;101781.25;6136686;23;20080;-75
2022/10/29 04:08:25;;;;;;;47.42;13.30;;;;;;;15.29;100.00;101787.41;6137618;23;20006;-75
2022/10/29 04:10:51;;;;;;;71.05;15.00;;;;;;;15.20;100.00;101777.50;6161975;23;20002;-75
2022/10/29 04:13:17;;;;;;;42.50;12.13;;;;;;;15.35;100.00;101777.72;6138671;23;20002;-75
2022/10/29 04:15:43;;;;;;;45.40;11.45;;;;;;;15.30;100.00;101771.91;6137070;23;19998;-75
2022/10/29 04:18:10;;;;;;;42.10;11.88;;;;;;;15.32;100.00;101770.72;6161182;23;19997;-75
2022/10/29 04:20:39;;;;;;;44.20;12.07;;;;;;;15.31;100.00;101774.44;6126943;23;20050;-75
2022/10/29 04:23:05;;;;;;;51.47;11.85;;;;;;;15.32;100.00;101759.81;6137323;23;20016;-75
2022/10/29 04:25:31;;;;;;;50.88;12.05;;;;;;;15.37;100.00;101762.88;6136370;23;20020;-75
2022/10/29 04:27:56;;;;;;;41.47;11.52;;;;;;;15.46;100.00;101759.16;6138295;23;20440;-75
2022/10/29 04:30:23;;;;;;;54.28;12.63;;;;;;;15.45;100.00;101775.66;6161493;23;20012;-75
2022/10/29 04:32:48;;;;;;;49.63;11.75;;;;;;;15.47;100.00;101773.66;6138174;23;20001;-75
2022/10/29 04:35:14;;;;;;;40.63;11.70;;;;;;;15.46;100.00;101772.78;6136665;23;20006;-75
2022/10/29 04:37:39;;;;;;;45.70;12.55;;;;;;;15.60;100.00;101789.53;6136525;23;20013;-75
2022/10/29 04:40:05;;;;;;;50.13;12.10;;;;;;;15.55;100.00;101786.44;6136528;23;20005;-75
2022/10/29 04:42:38;;;;;;;43.45;10.93;;;;;;;15.47;100.00;101796.34;6136617;23;20016;-75
2022/10/29 04:45:05;;;;;;;46.45;11.45;;;;;;;15.41;100.00;101786.09;6138027;23;20001;-75
2022/10/29 04:47:30;;;;;;;42.65;12.30;;;;;;;15.48;100.00;101800.75;6136440;23;20052;-75
2022/10/29 04:49:56;;;;;;;48.30;11.68;;;;;;;15.56;100.00;101793.59;6136392;23;20009;-75
2022/10/29 04:52:22;;;;;;;49.63;13.30;;;;;;;15.53;100.00;101788.50;6136417;23;20006;-75
2022/10/29 04:54:47;;;;;;;41.97;11.73;;;;;;;15.68;100.00;101790.41;6161283;23;20060;-75
2022/10/29 04:57:12;;;;;;;62.38;13.18;;;;;;;15.64;100.00;101780.00;6134960;23;20013;-75
2022/10/29 04:59:38;;;;;;;45.75;10.93;;;;;;;15.73;100.00;101785.31;6135664;23;20002;-75
2022/10/29 05:02:03;;;;;;;62.17;11.88;;;;;;;15.50;100.00;101783.34;6135291;23;20341;-75
2022/10/29 05:04:28;;;;;;;54.20;11.65;;;;;;;15.51;100.00;101774.16;6134720;23;19998;-75
2022/10/29 05:06:54;;;;;;;47.38;12.60;;;;;;;15.49;100.00;101785.25;6134535;23;20365;-75
2022/10/29 05:09:19;;;;;;;44.25;10.85;;;;;;;15.42;100.00;101787.78;6110246;23;20006;-75
2022/10/29 05:11:45;;;;;;;47.92;12.45;;;;;;;15.48;100.00;101797.19;6081145;23;20002;-75
2022/10/29 05:14:10;;;;;;;43.95;11.50;;;;;;;15.36;100.00;101815.75;6104321;23;20024;-75
2022/10/29 05:16:36;;;;;;;42.08;13.70;;;;;;;15.06;100.00;101813.59;6079160;23;20002;-75
2022/10/29 05:19:02;;;;;;;47.20;14.88;;;;;;;15.04;100.00;101808.31;6080286;23;20002;-75
2022/10/29 05:21:28;;;;;;;47.15;15.60;;;;;;;14.85;100.00;101805.84;6081685;23;20010;-75
2022/10/29 05:23:53;;;;;;;57.30;16.73;;;;;;;14.72;100.00;101800.84;6080900;23;20041;-75
2022/10/29 05:26:19;;;;;;;55.28;15.77;;;;;;;14.84;100.00;101809.59;6081190;23;20009;-75
2022/10/29 05:28:48;;;;;;;49.00;16.35;;;;;;;14.98;100.00;101816.28;6080918;23;20497;-75
2022/10/29 05:31:14;;;;;;;57.90;17.67;;;;;;;15.08;100.00;101817.88;6081176;23;20029;-75
2022/10/29 05:33:39;;;;;;;46.13;14.25;;;;;;;15.08;100.00;101819.75;6080831;23;19999;-75
2022/10/29 05:36:05;;;;;;;48.63;15.70;;;;;;;15.12;100.00;101823.84;6080813;23;20017;-75
2022/10/29 05:38:31;;;;;;;56.13;15.75;;;;;;;15.31;100.00;101807.19;6081007;23;20437;-75
2022/10/29 05:40:57;;;;;;;49.28;17.67;;;;;;;15.35;100.00;101797.66;6080878;23;20023;-75
2022/10/29 05:43:23;;;;;;;55.38;16.30;;;;;;;15.35;100.00;101805.84;6081018;23;20008;-75
2022/10/29 05:45:48;;;;;;;63.63;19.55;;;;;;;15.30;100.00;101810.94;6105613;23;20077;-74
2022/10/29 05:48:13;;;;;;;48.55;18.83;;;;;;;15.27;100.00;101800.38;6080157;23;20030;-75
2022/10/29 05:50:39;;;;;;;59.22;19.90;;;;;;;15.05;100.00;101799.09;6080878;23;20002;-75
2022/10/29 05:53:06;;;;;;;66.53;22.17;;;;;;;14.96;100.00;101807.44;6081114;23;20013;-75
2022/10/29 05:55:33;;;;;;;58.05;19.33;;;;;;;14.98;100.00;101805.38;6080780;23;20006;-75
2022/10/29 05:58:01;;;;;;;62.80;19.10;;;;;;;14.97;100.00;101818.16;6080914;23;20006;-74
2022/10/29 06:00:29;;;;;;;50.85;17.65;;;;;;;14.79;100.00;101818.25;6104934;23;20030;-74
2022/10/29 06:02:54;;;;;;;48.13;17.45;;;;;;;14.95;100.00;101811.19;6080979;23;20006;-76
2022/10/29 06:05:21;;;;;;;53.40;16.63;;;;;;;14.69;100.00;101812.06;6080378;23;20002;-74
2022/10/29 06:07:53;;;;;;;56.47;15.45;;;;;;;14.78;100.00;101811.09;6089851;23;20060;-76
2022/10/29 06:10:18;;;;;;;42.97;15.25;;;;;;;14.90;100.00;101815.25;6134142;23;20006;-75
2022/10/29 06:12:43;;;;;;;53.25;15.20;;;;;;;14.92;100.00;101813.19;6134464;23;20009;-75
2022/10/29 06:15:09;;;;;;;46.53;13.73;;;;;;;14.96;100.00;101801.97;6134218;23;20010;-75
2022/10/29 06:17:40;;;;;;;47.00;14.52;;;;;;;14.98;100.00;101805.38;6134464;23;20012;-76
2022/10/29 06:20:06;;;;;;;56.28;15.27;;;;;;;14.99;100.00;101812.53;6135657;23;19998;-75
2022/10/29 06:22:32;;;;;;;43.42;14.98;;;;;;;15.06;100.00;101802.69;6135676;23;20016;-75
2022/10/29 06:24:57;;;;;;;59.92;15.30;;;;;;;15.01;100.00;101805.94;6133753;23;19994;-76
2022/10/29 06:27:22;;;;;;;42.60;13.65;;;;;;;15.11;100.00;101816.69;6133707;23;20010;-75
2022/10/29 06:29:48;;;;;;;52.42;15.07;;;;;;;14.93;100.00;101814.94;6135767;23;20001;-76
2022/10/29 06:32:13;;;;;;;59.22;15.23;;;;;;;15.09;100.00;101813.28;6158541;23;20002;-75
2022/10/29 06:34:38;;;;;;;51.25;13.68;;;;;;;14.90;100.00;101817.97;6134297;23;20009;-75
2022/10/29 06:37:04;;;;;;;42.58;14.43;;;;;;;15.06;100.00;101813.59;6135300;23;20010;-75
2022/10/29 06:39:29;;;;;;;51.92;15.35;;;;;;;15.15;100.00;101809.88;6134778;23;20006;-75
2022/10/29 06:41:54;;;;;;;56.70;15.65;;;;;;;14.98;100.00;101819.03;6133965;23;20037;-75
2022/10/29 06:44:20;;;;;;;54.60;14.93;;;;;;;14.92;100.00;101823.25;6135098;23;20057;-74
2022/10/29 06:46:45;;;;;;;51.83;14.82;;;;;;;14.92;100.00;101824.09;6134489;23;20016;-75
2022/10/29 06:49:11;;;;;;;55.50;15.25;;;;;;;14.98;100.00;101821.75;6134088;23;20025;-75
2022/10/29 06:51:36;;;;;;;45.40;14.13;;;;;;;14.93;100.00;101820.38;6134547;23;20002;-75
2022/10/29 06:54:02;;;;;;;46.83;15.98;;;;;;;14.93;100.00;101820.38;6131942;23;20128;-70
2022/10/29 06:56:27;;;;;;;43.90;15.10;;;;;;;14.96;100.00;101830.09;6156263;23;20002;-70
2022/10/29 06:58:52;;;;;;;46.40;15.63;;;;;;;15.07;100.00;101837.16;6156095;23;20021;-72
2022/10/29 07:01:18;;;;;;;62.53;16.63;;;;;;;14.86;100.00;101834.81;6132682;23;20053;-71
2022/10/29 07:03:43;;;;;;;44.67;18.30;;;;;;;14.87;100.00;101842.84;6156450;23;20013;-70
2022/10/29 07:06:09;;;;;;;53.97;17.80;;;;;;;15.04;100.00;101837.47;6133135;23;20027;-74
2022/10/29 07:08:34;;;;;;;43.72;17.67;;;;;;;15.01;100.00;101837.81;6131171;23;20006;-71
2022/10/29 07:11:01;;;;;;;43.58;16.48;;;;;;;14.98;100.00;101843.56;6133171;23;20002;-69
2022/10/29 07:13:27;;;;;;;46.20;16.83;;;;;;;15.18;100.00;101850.47;6130948;23;20006;-74
2022/10/29 07:15:52;;;;;;;54.05;17.48;;;;;;;15.00;100.00;101852.47;6156425;23;20021;-71
2022/10/29 07:18:18;;;;;;;50.03;17.90;;;;;;;14.90;100.00;101861.59;6131466;23;19998;-71
2022/10/29 07:20:44;;;;;;;43.35;16.65;;;;;;;15.18;100.00;101858.66;6131734;23;20010;-72
2022/10/29 07:23:10;;;;;;;70.97;18.95;;;;;;;15.13;100.00;101869.22;6131502;23;20006;-72
2022/10/29 07:25:37;;;;;;;51.38;19.65;;;;;;;15.03;100.00;101852.13;6131926;23;19994;-71
2022/10/29 07:28:11;;;;;;;62.22;20.92;;;;;;;14.90;100.00;101861.59;6131427;23;20013;-70
2022/10/29 07:30:37;;;;;;;50.03;19.13;;;;;;;14.93;100.00;101861.28;6132214;23;20310;-72
2022/10/29 07:33:02;;;;;;;56.20;19.45;;;;;;;15.00;100.00;101853.31;6129266;23;20009;-70
2022/10/29 07:35:28;;;;;;;45.83;18.40;;;;;;;15.01;100.00;101856.91;6131636;23;20049;-71
2022/10/29 07:38:07;;;;;;;62.75;21.60;;;;;;;15.04;100.00;101870.19;6131184;23;20024;-70
2022/10/29 07:40:32;;;;;;;61.38;21.15;;;;;;;14.88;100.00;101870.97;6129469;23;20009;-72
2022/10/29 07:42:58;;;;;;;54.58;21.92;;;;;;;14.99;100.00;101867.94;6153787;23;20006;-71
2022/10/29 07:45:24;;;;;;;52.25;20.90;;;;;;;15.18;100.00;101883.22;6130434;23;20001;-71
2022/10/29 07:47:57;;;;;;;51.58;22.83;;;;;;;14.70;100.00;101868.31;6128524;23;20085;-69
2022/10/29 07:50:23;;;;;;;57.75;24.77;;;;;;;14.86;100.00;101879.28;6128517;23;20001;-71
2022/10/29 07:52:48;;;;;;;63.60;29.95;;;;;;;14.76;100.00;101881.28;6126936;23;20118;-71
2022/10/29 07:55:14;;;;;;;62.30;30.38;;;;;;;14.76;100.00;101877.72;6127718;23;20089;-71
2022/10/29 07:57:39;;;;;;;64.18;30.05;;;;;;;14.79;100.00;101888.28;6128141;23;20052;-71
2022/10/29 08:00:05;;;;;;;66.47;30.58;;;;;;;14.93;100.00;101895.84;6153065;23;20012;-72
2022/10/29 08:02:30;;;;;;;72.00;30.85;;;;;;;14.98;100.00;101892.66;6130271;23;20009;-70
2022/10/29 08:04:56;;;;;;;65.55;31.67;;;;;;;15.01;100.00;101892.34;6128592;23;20433;-71
2022/10/29 08:07:21;;;;;;;60.20;30.10;;;;;;;15.12;100.00;101881.97;6126690;23;20013;-70
2022/10/29 08:09:46;;;;;;;72.15;35.97;;;;;;;15.04;100.00;101898.31;6074629;23;20021;-69
2022/10/29 08:12:12;;;;;;;64.53;35.35;;;;;;;14.98;100.00;101893.50;6074751;23;20011;-69
2022/10/29 08:14:37;;;;;;;64.60;34.08;;;;;;;14.71;100.00;101891.81;6100812;23;20037;-69
2022/10/29 08:17:03;;;;;;;61.50;35.17;;;;;;;14.85;100.00;101893.94;6076158;23;20081;-70
2022/10/29 08:19:28;;;;;;;61.88;31.75;;;;;;;15.27;100.00;101893.16;6077780;23;20062;-71
2022/10/29 08:21:55;;;;;;;64.13;33.75;;;;;;;15.38;100.00;101895.56;6059542;23;19998;-71
2022/10/29 08:24:20;;;;;;;64.43;35.75;;;;;;;15.53;100.00;101897.69;6066904;23;20010;-69
2022/10/29 08:26:45;;;;;;;73.15;38.72;;;;;;;15.30;100.00;101887.34;6068528;23;20006;-71
2022/10/29 08:29:11;;;;;;;74.20;37.08;;;;;;;15.11;100.00;101872.09;6068169;23;20059;-71
2022/10/29 08:31:36;;;;;;;66.55;36.60;;;;;;;15.42;100.00;101864.22;6069473;23;20053;-70
2022/10/29 08:34:01;;;;;;;65.43;35.08;;;;;;;15.43;100.00;101860.44;6068446;23;20006;-70
2022/10/29 08:36:27;;;;;;;58.17;33.22;;;;;;;15.42;100.00;101853.28;6093905;23;20009;-68
2022/10/29 08:38:52;;;;;;;58.38;30.80;;;;;;;15.40;100.00;101844.44;6070572;23;20508;-69
2022/10/29 08:41:18;;;;;;;58.90;31.17;;;;;;;15.26;100.00;101842.34;6064695;23;20038;-71
2022/10/29 08:44:01;;;;;;;61.67;30.13;;;;;;;15.32;100.00;101847.13;6069943;23;20006;-71
2022/10/29 08:46:40;;;;;;;59.92;30.35;;;;;;;15.35;100.00;101846.78;6069499;23;20006;-69
2022/10/29 08:49:14;;;;;;;61.70;29.08;;;;;;;15.51;100.00;101839.66;6094800;23;20021;-70
2022/10/29 08:51:46;;;;;;;65.65;30.98;;;;;;;15.31;100.00;101842.66;6069666;23;20010;-69
2022/10/29 08:54:14;;;;;;;51.92;27.95;;;;;;;15.36;100.00;101843.03;6069588;23;20099;-70
2022/10/29 08:56:51;;;;;;;53.25;27.77;;;;;;;15.45;100.00;101822.94;6069022;23;20033;-70
2022/10/29 08:59:20;;;;;;;59.95;26.83;;;;;;;15.20;100.00;101832.94;6068958;23;20002;-71
2022/10/29 09:01:46;;;;;;;59.38;27.50;;;;;;;14.97;100.00;101820.03;6068700;23;20006;-70
2022/10/29 09:04:34;;;;;;;55.88;26.65;;;;;;;15.36;100.00;101814.91;6070407;23;20017;-70
2022/10/29 09:07:27;;;;;;;64.63;29.00;;;;;;;15.31;100.00;101834.47;6069319;23;20049;-69
2022/10/29 09:10:05;;;;;;;51.88;26.70;;;;;;;15.33;100.00;101848.00;6093685;23;20015;-71
2022/10/29 09:12:43;;;;;;;64.07;28.23;;;;;;;15.27;100.00;101868.59;6093886;23;20010;-71
2022/10/29 09:15:20;;;;;;;69.28;33.38;;;;;;;15.17;100.00;101870.59;6095315;23;20014;-71
2022/10/29 09:18:07;;;;;;;67.55;32.28;;;;;;;14.95;100.00;101874.75;6091654;23;20021;-71
2022/10/29 09:21:02;;;;;;;73.93;34.17;;;;;;;15.14;100.00;101860.03;6067789;23;20006;-72
2022/10/29 09:23:46;;;;;;;71.38;34.00;;;;;;;15.21;100.00;101850.16;6094587;23;20061;-72
2022/10/29 09:26:29;;;;;;;79.03;35.55;;;;;;;15.30;100.00;101860.06;6094521;23;20006;-72
2022/10/29 09:29:13;;;;;;;75.70;33.55;;;;;;;15.50;100.00;101862.50;6076089;23;20086;-72
2022/10/29 09:32:02;;;;;;;81.63;37.85;;;;;;;15.55;100.00;101851.97;6102179;23;20048;-73
2022/10/29 09:34:36;;;;;;;86.13;38.40;;;;;;;15.62;100.00;101853.03;6075917;23;20002;-72
2022/10/29 09:37:11;;;;;;;74.53;38.03;;;;;;;15.77;100.00;101855.94;6075084;23;20059;-73
2022/10/29 09:39:40;;;;;;;90.10;41.83;;;;;;;15.64;100.00;101862.75;6101584;23;20022;-70
2022/10/29 09:42:20;;;;;;;71.63;34.90;;;;;;;15.64;100.00;101848.25;6076313;23;20033;-72
2022/10/29 09:44:53;;;;;;;67.18;35.20;;;;;;;16.09;99.42;101838.72;6101847;23;20081;-72
2022/10/29 09:47:57;;;;;;;66.20;34.78;;;;;;;16.28;99.12;101854.78;6075228;23;20006;-68
2022/10/29 09:50:45;;;;;;;68.07;33.72;;;;;;;16.44;97.14;101843.00;6101780;23;20007;-74
2022/10/29 09:53:11;;;;;;;60.70;31.25;;;;;;;16.88;96.13;101810.59;6075599;23;20006;-72
2022/10/29 09:55:42;;;;;;;60.65;29.63;;;;;;;17.15;93.55;101808.41;6103538;23;20437;-75
2022/10/29 09:58:22;;;;;;;55.15;27.83;;;;;;;17.02;94.25;101807.13;6076555;23;20030;-70
2022/10/29 10:00:49;;;;;;;58.97;30.10;;;;;;;16.94;94.70;101818.09;6102716;23;20022;-72
2022/10/29 10:03:26;;;;;;;52.83;28.75;;;;;;;16.96;94.26;101809.72;6103023;23;20062;-70
2022/10/29 10:06:06;;;;;;;59.00;29.55;;;;;;;16.62;95.93;101812.69;6103527;23;20009;-71
2022/10/29 10:08:33;;;;;;;54.70;27.80;;;;;;;16.83;95.71;101793.88;6104972;23;20009;-72
2022/10/29 10:11:01;;;;;;;63.72;31.98;;;;;;;16.27;98.00;101798.44;6132696;23;20067;-71
2022/10/29 10:13:30;;;;;;;71.95;30.45;;;;;;;16.65;96.11;101798.69;6130257;23;20392;-69
2022/10/29 10:15:58;;;;;;;55.00;28.23;;;;;;;16.69;96.75;101814.59;6130954;23;20002;-71
2022/10/29 10:18:44;;;;;;;69.97;30.50;;;;;;;16.34;98.45;101817.72;6130573;23;20037;-72
2022/10/29 10:21:23;;;;;;;70.00;31.10;;;;;;;15.92;99.97;101805.97;6120928;23;20056;-73
2022/10/29 10:23:51;;;;;;;56.55;27.15;;;;;;;16.34;99.85;101807.63;6130269;23;20009;-73
2022/10/29 10:26:35;;;;;;;68.65;31.45;;;;;;;16.45;98.59;101812.75;6129175;23;20083;-70
2022/10/29 10:29:04;;;;;;;66.25;31.38;;;;;;;16.67;97.81;101813.03;6131170;23;20010;-71
2022/10/29 10:31:29;;;;;;;61.30;29.80;;;;;;;16.49;98.88;101808.63;6132273;23;19998;-73
2022/10/29 10:33:55;;;;;;;56.40;29.27;;;;;;;16.65;98.50;101801.44;6128092;23;20012;-72
2022/10/29 10:36:23;;;;;;;56.80;28.45;;;;;;;16.61;98.45;101811.00;6127894;23;20029;-72
2022/10/29 10:38:53;;;;;;;60.85;28.05;;;;;;;16.39;99.01;101818.91;6128860;23;20005;-71
2022/10/29 10:41:24;;;;;;;67.57;28.30;;;;;;;16.22;100.00;101809.88;6129315;23;20437;-71
2022/10/29 10:43:50;;;;;;;57.25;28.00;;;;;;;16.40;99.93;101819.75;6131431;23;20004;-71
2022/10/29 10:46:25;;;;;;;63.55;28.00;;;;;;;16.47;99.54;101813.41;6130095;23;20033;-70
2022/10/29 10:49:00;;;;;;;70.82;29.05;;;;;;;16.39;100.00;101818.06;6127995;23;20040;-71
2022/10/29 10:51:29;;;;;;;65.00;28.00;;;;;;;16.54;99.76;101814.44;6130578;23;20009;-69
2022/10/29 10:53:56;;;;;;;72.15;28.65;;;;;;;16.21;100.00;101804.59;6129304;23;20010;-71
2022/10/29 10:56:22;;;;;;;60.75;26.33;;;;;;;16.57;99.76;101805.03;6129258;23;20009;-69
2022/10/29 10:59:04;;;;;;;57.78;22.40;;;;;;;16.61;99.62;101805.53;6130579;23;20012;-71
2022/10/29 11:01:46;;;;;;;55.35;22.67;;;;;;;16.92;98.50;101792.81;6154747;23;20002;-72
2022/10/29 11:04:25;;;;;;;59.05;22.80;;;;;;;16.88;98.78;101780.50;6130475;23;20037;-73
2022/10/29 11:06:54;;;;;;;63.00;25.15;;;;;;;17.07;97.99;101785.53;6128645;23;20014;-73
2022/10/29 11:09:32;;;;;;;53.92;23.55;;;;;;;16.84;98.60;101784.63;6129060;23;20014;-74
2022/10/29 11:12:02;;;;;;;56.47;22.70;;;;;;;17.17;97.64;101789.97;6154565;23;20013;-74
2022/10/29 11:14:49;;;;;;;59.70;21.58;;;;;;;16.93;98.49;101783.56;6129418;23;20427;-72